createdAt,value
2023-01-11T00:01:55.313Z,47.47
2023-01-11T00:07:03.140Z,44.13
2023-01-11T00:12:12.754Z,51.30
2023-01-11T00:17:19.280Z,50.85
2023-01-11T00:22:27.518Z,53.65
2023-01-11T00:27:35.572Z,52.47
2023-01-11T00:32:42.085Z,50.07
2023-01-11T00:37:49.910Z,56.90
2023-01-11T00:43:13.712Z,48.50
2023-01-11T00:48:19.965Z,52.33
2023-01-11T00:53:27.787Z,44.10
2023-01-11T00:58:34.692Z,54.90
2023-01-11T01:03:41.125Z,54.35
2023-01-11T01:08:48.830Z,53.35
2023-01-11T01:14:13.045Z,56.13
2023-01-11T01:19:19.686Z,52.22
2023-01-11T01:24:29.143Z,57.20
2023-01-11T01:29:35.804Z,64.88
2023-01-11T01:34:42.116Z,68.57
2023-01-11T01:39:50.007Z,67.18
2023-01-11T01:45:03.733Z,66.88
2023-01-11T01:50:17.694Z,61.08
2023-01-11T01:55:30.850Z,69.20
2023-01-11T02:00:41.080Z,72.45
2023-01-11T02:05:48.414Z,76.63
2023-01-11T02:10:57.213Z,77.18
2023-01-11T02:16:09.513Z,70.88
2023-01-11T02:21:27.952Z,72.20
2023-01-11T02:27:27.951Z,64.00
2023-01-11T02:32:48.962Z,70.05
2023-01-11T02:38:07.124Z,59.00
2023-01-11T02:43:37.551Z,43.90
2023-01-11T02:48:56.282Z,62.08
2023-01-11T02:54:07.704Z,60.00
2023-01-11T02:59:19.029Z,57.78
2023-01-11T03:04:33.150Z,58.08
2023-01-11T03:09:52.555Z,56.60
2023-01-11T03:15:16.916Z,59.15
2023-01-11T03:20:30.706Z,68.55
2023-01-11T03:25:49.956Z,67.65
2023-01-11T03:31:04.239Z,57.00
2023-01-11T03:36:36.725Z,56.60
2023-01-11T03:41:45.323Z,47.25
2023-01-11T03:46:57.537Z,52.87
2023-01-11T03:52:10.186Z,48.38
2023-01-11T03:57:22.336Z,49.08
2023-01-11T04:02:35.934Z,50.42
2023-01-11T04:07:44.304Z,52.25
2023-01-11T04:12:51.317Z,46.77
2023-01-11T04:18:05.348Z,46.15
2023-01-11T04:23:13.244Z,44.33
2023-01-11T04:28:19.755Z,48.95
2023-01-11T04:33:26.940Z,45.28
2023-01-11T04:38:36.396Z,46.85
2023-01-11T04:43:43.542Z,48.10
2023-01-11T04:48:50.050Z,44.97
2023-01-11T04:53:57.779Z,44.80
2023-01-11T04:59:04.466Z,42.60
2023-01-11T05:04:13.324Z,40.75
2023-01-11T05:09:21.841Z,39.95
2023-01-11T05:14:29.057Z,43.10
2023-01-11T05:19:35.336Z,46.45
2023-01-11T05:24:43.943Z,45.67
2023-01-11T05:29:51.948Z,51.17
2023-01-11T05:34:58.412Z,46.20
2023-01-11T05:40:08.462Z,46.45
2023-01-11T05:45:32.280Z,52.00
2023-01-11T05:50:38.854Z,49.47
2023-01-11T05:55:56.039Z,49.38
2023-01-11T06:01:02.527Z,47.08
2023-01-11T06:06:10.434Z,47.35
2023-01-11T06:11:18.729Z,45.95
2023-01-11T06:16:26.351Z,52.47
2023-01-11T06:21:33.349Z,42.95
2023-01-11T06:26:41.731Z,42.35
2023-01-11T06:31:48.896Z,39.20
2023-01-11T06:36:55.365Z,38.50
2023-01-11T06:42:03.567Z,38.55
2023-01-11T06:47:10.031Z,43.40
2023-01-11T06:52:16.896Z,43.42
2023-01-11T06:57:25.017Z,42.50
2023-01-11T07:02:31.452Z,42.17
2023-01-11T07:07:38.258Z,49.30
2023-01-11T07:12:46.034Z,43.35
2023-01-11T07:17:57.495Z,45.10
2023-01-11T07:23:03.880Z,38.42
2023-01-11T07:28:12.877Z,43.95
2023-01-11T07:38:25.409Z,41.13
2023-01-11T07:43:33.845Z,33.35
2023-01-11T07:48:40.130Z,35.53
2023-01-11T07:53:46.320Z,40.40
2023-01-11T07:58:54.333Z,34.92
2023-01-11T08:04:01.186Z,37.47
2023-01-11T08:09:07.861Z,34.80
2023-01-11T08:14:33.336Z,30.30
2023-01-11T08:19:39.793Z,35.17
2023-01-11T08:24:46.449Z,34.05
2023-01-11T08:29:54.524Z,30.92
2023-01-11T08:35:00.920Z,27.27
2023-01-11T08:40:12.945Z,27.20
2023-01-11T08:45:21.290Z,32.28
2023-01-11T08:50:28.319Z,25.60
2023-01-11T08:55:35.042Z,20.20
2023-01-11T09:00:45.306Z,21.77
2023-01-11T09:05:52.280Z,23.48
2023-01-11T09:11:02.850Z,16.58
2023-01-11T09:16:11.109Z,22.70
2023-01-11T09:21:17.641Z,19.50
2023-01-11T09:26:24.021Z,24.67
2023-01-11T09:31:32.125Z,22.42
2023-01-11T09:36:40.519Z,20.43
2023-01-11T09:42:32.661Z,20.15
2023-01-11T09:47:44.066Z,25.63
2023-01-11T09:52:55.141Z,21.42
2023-01-11T09:58:39.409Z,23.40
2023-01-11T10:04:41.110Z,16.60
2023-01-11T10:21:09.903Z,19.90
2023-01-11T10:26:28.637Z,20.50
2023-01-11T10:31:49.603Z,19.35
2023-01-11T10:37:24.231Z,19.15
2023-01-11T10:42:35.454Z,21.58
2023-01-11T10:47:46.837Z,20.95
2023-01-11T10:53:03.187Z,20.65
2023-01-11T10:58:28.586Z,22.45
2023-01-11T11:04:09.269Z,23.80
2023-01-11T11:09:26.486Z,22.45
2023-01-11T11:14:41.237Z,20.10
2023-01-11T11:19:47.845Z,17.77
2023-01-11T11:25:05.450Z,22.88
2023-01-11T11:30:14.979Z,18.85
2023-01-11T11:35:39.052Z,19.83
2023-01-11T11:40:57.501Z,18.75
2023-01-11T11:46:06.569Z,22.05
2023-01-11T11:51:27.022Z,21.73
2023-01-11T11:56:38.411Z,25.33
2023-01-11T12:01:48.689Z,19.35
2023-01-11T12:07:10.067Z,18.70
2023-01-11T12:12:26.899Z,18.08
2023-01-11T12:17:35.705Z,20.58
2023-01-11T12:22:42.178Z,18.35
2023-01-11T12:28:03.577Z,19.70
2023-01-11T12:33:30.233Z,21.60
2023-01-11T12:38:49.319Z,23.70
2023-01-11T12:44:06.548Z,19.45
2023-01-11T12:49:32.957Z,24.00
2023-01-11T12:55:02.431Z,27.55
2023-01-11T13:00:44.082Z,34.55
2023-01-11T13:06:03.579Z,26.13
2023-01-11T13:11:35.431Z,26.67
2023-01-11T13:16:52.783Z,25.83
2023-01-11T13:22:04.897Z,21.40
2023-01-11T13:27:24.939Z,19.23
2023-01-11T13:32:38.021Z,19.77
2023-01-11T13:37:53.673Z,22.75
2023-01-11T13:43:07.179Z,21.45
2023-01-11T13:48:23.625Z,20.63
2023-01-11T13:53:43.582Z,25.20
2023-01-11T13:58:57.285Z,31.85
2023-01-11T14:04:13.070Z,21.58
2023-01-11T14:09:45.680Z,23.25
2023-01-11T14:15:19.680Z,22.55
2023-01-11T14:20:36.875Z,73.35
2023-01-11T14:26:07.725Z,55.13
2023-01-11T14:31:50.081Z,44.28
2023-01-11T14:37:47.907Z,47.22
2023-01-11T14:43:41.154Z,52.97
2023-01-11T14:49:03.250Z,37.30
2023-01-11T14:54:17.468Z,31.63
2023-01-11T14:59:44.394Z,35.30
2023-01-11T15:05:10.415Z,29.27
2023-01-11T15:10:51.015Z,30.17
2023-01-11T15:16:29.417Z,21.92
2023-01-11T15:21:42.373Z,19.45
2023-01-11T15:26:52.552Z,26.77
2023-01-11T15:32:19.794Z,20.45
2023-01-11T15:37:50.286Z,19.67
2023-01-11T15:44:00.344Z,22.88
2023-01-11T15:49:51.516Z,23.52
2023-01-11T15:55:48.633Z,20.75
2023-01-11T16:01:25.194Z,26.85
2023-01-11T16:06:48.279Z,23.10
2023-01-11T16:12:15.827Z,23.80
2023-01-11T16:17:26.323Z,23.83
2023-01-11T16:22:33.571Z,26.00
2023-01-11T16:27:40.775Z,28.15
2023-01-11T16:32:48.927Z,30.85
2023-01-11T16:37:59.226Z,25.27
2023-01-11T16:43:18.794Z,29.45
2023-01-11T16:48:28.860Z,33.88
2023-01-11T16:53:38.073Z,26.90
2023-01-11T16:59:04.518Z,25.58
2023-01-11T17:04:31.425Z,24.17
2023-01-11T17:09:38.504Z,24.70
2023-01-11T17:15:00.490Z,25.13
2023-01-11T17:20:21.571Z,22.38
2023-01-11T17:25:43.511Z,24.52
2023-01-11T17:30:54.019Z,16.20
2023-01-11T17:36:03.463Z,28.00
2023-01-11T17:41:32.428Z,23.48
2023-01-11T17:46:41.178Z,24.42
2023-01-11T17:51:49.207Z,19.80
2023-01-11T17:57:01.926Z,26.50
2023-01-11T18:02:15.549Z,28.05
2023-01-11T18:07:23.627Z,22.80
2023-01-11T18:12:34.036Z,23.20
2023-01-11T18:17:42.785Z,23.85
2023-01-11T18:23:05.237Z,20.88
2023-01-11T18:28:30.627Z,21.00
2023-01-11T18:33:42.137Z,18.50
2023-01-11T18:38:51.119Z,16.75
2023-01-11T18:43:58.909Z,15.15
2023-01-11T18:49:06.811Z,17.15
2023-01-11T18:54:18.938Z,18.13
2023-01-11T18:59:26.032Z,17.42
2023-01-11T19:04:33.535Z,17.08
2023-01-11T19:09:42.678Z,17.85
2023-01-11T19:14:51.393Z,17.00
2023-01-11T19:19:59.870Z,16.63
2023-01-11T19:25:10.688Z,17.40
2023-01-11T19:30:19.208Z,14.63
2023-01-11T19:35:26.872Z,13.68
2023-01-11T19:40:36.895Z,14.45
2023-01-11T19:45:44.721Z,19.77
2023-01-11T19:50:52.287Z,16.98
2023-01-11T19:56:05.710Z,16.30
2023-01-11T20:01:15.137Z,21.17
2023-01-11T20:06:24.089Z,17.23
2023-01-11T20:11:33.167Z,19.13
2023-01-11T20:16:39.909Z,17.73
2023-01-11T20:21:50.214Z,19.15
2023-01-11T20:27:00.497Z,20.85
2023-01-11T20:32:31.100Z,18.52
2023-01-11T20:37:36.431Z,16.20
2023-01-11T20:42:45.798Z,20.55
2023-01-11T20:47:53.313Z,20.08
2023-01-11T20:53:01.414Z,20.23
2023-01-11T20:58:10.311Z,20.90
2023-01-11T21:03:20.202Z,21.58
2023-01-11T21:08:27.246Z,21.10
2023-01-11T21:13:35.668Z,21.52
2023-01-11T21:18:44.122Z,23.30
2023-01-11T21:23:51.089Z,20.27
2023-01-11T21:29:01.395Z,21.80
2023-01-11T21:34:08.309Z,19.27
2023-01-11T21:39:17.010Z,22.15
2023-01-11T21:44:30.077Z,21.27
2023-01-11T21:49:36.552Z,20.30
2023-01-11T21:54:43.737Z,21.67
2023-01-11T21:59:54.297Z,23.60
2023-01-11T22:05:00.800Z,22.98
2023-01-11T22:10:08.135Z,26.80
2023-01-11T22:15:16.123Z,23.23
2023-01-11T22:20:23.991Z,21.25
2023-01-11T22:25:30.528Z,21.38
2023-01-11T22:30:38.588Z,22.63
2023-01-11T22:35:54.895Z,19.67
2023-01-11T22:41:02.177Z,25.13
2023-01-11T22:46:14.275Z,22.23
2023-01-11T22:51:23.755Z,24.83
2023-01-11T22:56:30.941Z,24.38
2023-01-11T23:01:40.766Z,23.77
2023-01-11T23:06:47.629Z,23.95
2023-01-11T23:12:11.771Z,28.15
2023-01-11T23:17:19.711Z,25.48
2023-01-11T23:22:25.920Z,21.77
2023-01-11T23:27:32.211Z,18.50
2023-01-11T23:32:42.635Z,24.48
2023-01-11T23:37:51.070Z,21.45
2023-01-11T23:43:01.689Z,29.42
2023-01-11T23:48:09.885Z,25.23
2023-01-11T23:53:18.052Z,25.83
2023-01-11T23:58:24.544Z,28.90
